sensor_id;sensor_type;location;lat;lon;timestamp;pressure;altitude;pressure_sealevel;temperature;humidity
31681;BME280;18281;51.364;9.566;2022-08-18T00:02:20;99590.03;;;15.34;100.00
31681;BME280;18281;51.364;9.566;2022-08-18T00:04:47;99589.69;;;14.60;100.00
31681;BME280;18281;51.364;9.566;2022-08-18T00:07:18;99590.66;;;14.82;100.00
31681;BME280;18281;51.364;9.566;2022-08-18T00:09:44;99593.53;;;14.56;100.00
31681;BME280;18281;51.364;9.566;2022-08-18T00:12:15;99586.81;;;14.75;100.00
31681;BME280;18281;51.364;9.566;2022-08-18T00:14:42;99584.78;;;15.22;100.00
31681;BME280;18281;51.364;9.566;2022-08-18T00:17:08;99588.94;;;14.92;100.00
31681;BME280;18281;51.364;9.566;2022-08-18T00:19:34;99595.19;;;14.91;100.00
31681;BME280;18281;51.364;9.566;2022-08-18T00:21:59;99591.34;;;14.73;100.00
31681;BME280;18281;51.364;9.566;2022-08-18T00:24:25;99600.25;;;14.72;100.00
31681;BME280;18281;51.364;9.566;2022-08-18T00:26:50;99601.22;;;14.71;100.00
31681;BME280;18281;51.364;9.566;2022-08-18T00:29:16;99597.13;;;14.78;100.00
31681;BME280;18281;51.364;9.566;2022-08-18T00:31:42;99587.78;;;14.51;100.00
31681;BME280;18281;51.364;9.566;2022-08-18T00:34:07;99590.16;;;14.88;100.00
31681;BME280;18281;51.364;9.566;2022-08-18T00:36:33;99587.44;;;14.45;100.00
31681;BME280;18281;51.364;9.566;2022-08-18T00:39:00;99594.03;;;14.39;100.00
31681;BME280;18281;51.364;9.566;2022-08-18T00:41:26;99591.41;;;14.39;100.00
31681;BME280;18281;51.364;9.566;2022-08-18T00:43:52;99589.72;;;14.38;100.00
31681;BME280;18281;51.364;9.566;2022-08-18T00:46:25;99588.75;;;14.62;100.00
31681;BME280;18281;51.364;9.566;2022-08-18T00:48:51;99586.81;;;14.52;100.00
31681;BME280;18281;51.364;9.566;2022-08-18T00:54:07;99596.69;;;14.28;100.00
31681;BME280;18281;51.364;9.566;2022-08-18T00:56:42;99599.56;;;14.36;100.00
31681;BME280;18281;51.364;9.566;2022-08-18T00:59:15;99603.03;;;14.59;100.00
31681;BME280;18281;51.364;9.566;2022-08-18T01:01:43;99603.88;;;14.48;100.00
31681;BME280;18281;51.364;9.566;2022-08-18T01:04:17;99608.44;;;14.35;100.00
31681;BME280;18281;51.364;9.566;2022-08-18T01:06:48;99603.88;;;14.48;100.00
31681;BME280;18281;51.364;9.566;2022-08-18T01:09:16;99599.22;;;14.29;100.00
31681;BME280;18281;51.364;9.566;2022-08-18T01:11:42;99598.59;;;14.14;100.00
31681;BME280;18281;51.364;9.566;2022-08-18T01:14:09;99602.91;;;14.38;100.00
31681;BME280;18281;51.364;9.566;2022-08-18T01:16:35;99597.84;;;14.23;100.00
31681;BME280;18281;51.364;9.566;2022-08-18T01:19:19;99603.50;;;14.19;100.00
31681;BME280;18281;51.364;9.566;2022-08-18T01:22:12;99607.22;;;14.05;100.00
31681;BME280;18281;51.364;9.566;2022-08-18T01:24:39;99606.75;;;14.00;100.00
31681;BME280;18281;51.364;9.566;2022-08-18T01:27:25;99601.22;;;13.91;100.00
31681;BME280;18281;51.364;9.566;2022-08-18T01:29:51;99612.50;;;14.05;100.00
31681;BME280;18281;51.364;9.566;2022-08-18T01:32:19;99603.72;;;13.93;100.00
31681;BME280;18281;51.364;9.566;2022-08-18T01:34:47;99600.75;;;13.62;100.00
31681;BME280;18281;51.364;9.566;2022-08-18T01:37:16;99602.09;;;13.79;100.00
31681;BME280;18281;51.364;9.566;2022-08-18T01:39:43;99603.47;;;13.96;100.00
31681;BME280;18281;51.364;9.566;2022-08-18T01:42:09;99606.88;;;14.32;100.00
31681;BME280;18281;51.364;9.566;2022-08-18T01:44:37;99606.03;;;14.20;100.00
31681;BME280;18281;51.364;9.566;2022-08-18T01:47:07;99621.38;;;13.68;100.00
31681;BME280;18281;51.364;9.566;2022-08-18T01:49:35;99616.81;;;13.70;100.00
31681;BME280;18281;51.364;9.566;2022-08-18T01:52:01;99613.91;;;13.98;100.00
31681;BME280;18281;51.364;9.566;2022-08-18T01:54:28;99605.53;;;14.04;100.00
31681;BME280;18281;51.364;9.566;2022-08-18T01:56:54;99606.78;;;13.87;100.00
31681;BME280;18281;51.364;9.566;2022-08-18T01:59:20;99609.03;;;13.69;100.00
31681;BME280;18281;51.364;9.566;2022-08-18T02:01:47;99602.44;;;13.74;100.00
31681;BME280;18281;51.364;9.566;2022-08-18T02:04:15;99610.13;;;13.77;100.00
31681;BME280;18281;51.364;9.566;2022-08-18T02:06:41;99610.59;;;13.71;100.00
31681;BME280;18281;51.364;9.566;2022-08-18T02:09:07;99604.91;;;13.89;100.00
31681;BME280;18281;51.364;9.566;2022-08-18T02:11:32;99607.72;;;13.74;100.00
31681;BME280;18281;51.364;9.566;2022-08-18T02:13:58;99612.44;;;13.82;100.00
31681;BME280;18281;51.364;9.566;2022-08-18T02:16:23;99612.69;;;13.55;100.00
31681;BME280;18281;51.364;9.566;2022-08-18T02:18:49;99603.59;;;13.59;100.00
31681;BME280;18281;51.364;9.566;2022-08-18T02:21:17;99593.09;;;13.82;100.00
31681;BME280;18281;51.364;9.566;2022-08-18T02:23:44;99602.28;;;13.89;100.00
31681;BME280;18281;51.364;9.566;2022-08-18T02:26:14;99592.88;;;13.85;100.00
31681;BME280;18281;51.364;9.566;2022-08-18T02:28:40;99594.97;;;13.57;100.00
31681;BME280;18281;51.364;9.566;2022-08-18T02:31:11;99603.72;;;13.57;100.00
31681;BME280;18281;51.364;9.566;2022-08-18T02:33:38;99600.03;;;13.12;100.00
31681;BME280;18281;51.364;9.566;2022-08-18T02:36:04;99606.81;;;13.27;100.00
31681;BME280;18281;51.364;9.566;2022-08-18T02:38:31;99599.63;;;13.53;100.00
31681;BME280;18281;51.364;9.566;2022-08-18T02:40:59;99617.13;;;13.54;100.00
31681;BME280;18281;51.364;9.566;2022-08-18T02:43:25;99622.22;;;13.69;100.00
31681;BME280;18281;51.364;9.566;2022-08-18T02:45:51;99616.69;;;13.61;100.00
31681;BME280;18281;51.364;9.566;2022-08-18T02:48:17;99622.66;;;13.63;100.00
31681;BME280;18281;51.364;9.566;2022-08-18T02:51:04;99621.19;;;13.47;100.00
31681;BME280;18281;51.364;9.566;2022-08-18T02:53:31;99626.03;;;13.40;100.00
31681;BME280;18281;51.364;9.566;2022-08-18T02:56:06;99614.50;;;13.54;100.00
31681;BME280;18281;51.364;9.566;2022-08-18T02:58:44;99614.94;;;13.48;100.00
31681;BME280;18281;51.364;9.566;2022-08-18T03:01:10;99612.31;;;13.48;100.00
31681;BME280;18281;51.364;9.566;2022-08-18T03:03:36;99613.09;;;13.37;100.00
31681;BME280;18281;51.364;9.566;2022-08-18T03:06:01;99606.03;;;13.38;100.00
31681;BME280;18281;51.364;9.566;2022-08-18T03:08:27;99607.25;;;13.45;100.00
31681;BME280;18281;51.364;9.566;2022-08-18T03:10:53;99608.72;;;13.49;100.00
31681;BME280;18281;51.364;9.566;2022-08-18T03:13:19;99611.34;;;13.49;100.00
31681;BME280;18281;51.364;9.566;2022-08-18T03:15:45;99617.13;;;13.54;100.00
31681;BME280;18281;51.364;9.566;2022-08-18T03:18:11;99625.97;;;13.42;100.00
31681;BME280;18281;51.364;9.566;2022-08-18T03:20:37;99624.34;;;13.64;100.00
31681;BME280;18281;51.364;9.566;2022-08-18T03:23:04;99628.53;;;13.31;100.00
31681;BME280;18281;51.364;9.566;2022-08-18T03:25:30;99626.91;;;13.17;100.00
31681;BME280;18281;51.364;9.566;2022-08-18T03:27:56;99624.19;;;13.30;100.00
31681;BME280;18281;51.364;9.566;2022-08-18T03:30:22;99623.38;;;13.05;100.00
31681;BME280;18281;51.364;9.566;2022-08-18T03:32:48;99624.09;;;13.07;100.00
31681;BME280;18281;51.364;9.566;2022-08-18T03:35:15;99618.50;;;13.12;100.00
31681;BME280;18281;51.364;9.566;2022-08-18T03:37:41;99619.78;;;13.30;100.00
31681;BME280;18281;51.364;9.566;2022-08-18T03:40:07;99623.50;;;13.28;100.00
31681;BME280;18281;51.364;9.566;2022-08-18T03:42:35;99616.97;;;13.20;100.00
31681;BME280;18281;51.364;9.566;2022-08-18T03:45:01;99621.63;;;13.41;100.00
31681;BME280;18281;51.364;9.566;2022-08-18T03:47:26;99610.53;;;13.24;100.00
31681;BME280;18281;51.364;9.566;2022-08-18T03:49:52;99614.72;;;13.27;100.00
31681;BME280;18281;51.364;9.566;2022-08-18T03:52:18;99604.44;;;13.59;100.00
31681;BME280;18281;51.364;9.566;2022-08-18T03:54:44;99608.44;;;13.41;100.00
31681;BME280;18281;51.364;9.566;2022-08-18T03:57:11;99608.22;;;13.44;100.00
31681;BME280;18281;51.364;9.566;2022-08-18T03:59:38;99619.00;;;13.17;100.00
31681;BME280;18281;51.364;9.566;2022-08-18T04:02:05;99607.94;;;13.36;100.00
31681;BME280;18281;51.364;9.566;2022-08-18T04:04:32;99619.44;;;13.35;100.00
31681;BME280;18281;51.364;9.566;2022-08-18T04:07:00;99619.75;;;13.54;100.00
31681;BME280;18281;51.364;9.566;2022-08-18T04:09:29;99627.84;;;13.40;100.00
31681;BME280;18281;51.364;9.566;2022-08-18T04:11:56;99629.69;;;13.51;100.00
31681;BME280;18281;51.364;9.566;2022-08-18T04:14:24;99640.38;;;13.25;100.00
31681;BME280;18281;51.364;9.566;2022-08-18T04:16:51;99629.97;;;13.35;100.00
31681;BME280;18281;51.364;9.566;2022-08-18T04:19:17;99629.03;;;13.36;100.00
31681;BME280;18281;51.364;9.566;2022-08-18T04:21:43;99633.25;;;13.14;100.00
31681;BME280;18281;51.364;9.566;2022-08-18T04:24:11;99632.28;;;13.15;100.00
31681;BME280;18281;51.364;9.566;2022-08-18T04:26:40;99634.31;;;13.36;100.00
31681;BME280;18281;51.364;9.566;2022-08-18T04:29:10;99636.50;;;13.18;100.00
31681;BME280;18281;51.364;9.566;2022-08-18T04:31:36;99635.69;;;13.77;100.00
31681;BME280;18281;51.364;9.566;2022-08-18T04:34:03;99625.41;;;13.97;100.00
31681;BME280;18281;51.364;9.566;2022-08-18T04:36:30;99625.31;;;13.63;100.00
31681;BME280;18281;51.364;9.566;2022-08-18T04:38:57;99633.56;;;13.58;100.00
31681;BME280;18281;51.364;9.566;2022-08-18T04:41:24;99649.06;;;13.38;100.00
31681;BME280;18281;51.364;9.566;2022-08-18T04:43:53;99645.38;;;13.41;100.00
31681;BME280;18281;51.364;9.566;2022-08-18T04:46:19;99641.88;;;13.65;100.00
31681;BME280;18281;51.364;9.566;2022-08-18T04:48:45;99645.47;;;13.64;100.00
31681;BME280;18281;51.364;9.566;2022-08-18T04:51:14;99649.16;;;13.61;100.00
31681;BME280;18281;51.364;9.566;2022-08-18T04:53:40;99639.59;;;13.96;100.00
31681;BME280;18281;51.364;9.566;2022-08-18T04:58:38;99639.72;;;14.17;100.00
31681;BME280;18281;51.364;9.566;2022-08-18T05:01:04;99640.38;;;14.43;100.00
31681;BME280;18281;51.364;9.566;2022-08-18T05:03:30;99640.25;;;14.67;100.00
31681;BME280;18281;51.364;9.566;2022-08-18T05:05:57;99654.06;;;14.59;100.00
31681;BME280;18281;51.364;9.566;2022-08-18T05:08:24;99648.91;;;14.69;100.00
31681;BME280;18281;51.364;9.566;2022-08-18T05:10:55;99645.41;;;14.35;100.00
31681;BME280;18281;51.364;9.566;2022-08-18T05:13:22;99648.69;;;14.61;100.00
31681;BME280;18281;51.364;9.566;2022-08-18T05:15:55;99654.78;;;14.73;100.00
31681;BME280;18281;51.364;9.566;2022-08-18T05:18:23;99647.94;;;14.93;100.00
31681;BME280;18281;51.364;9.566;2022-08-18T05:20:54;99647.31;;;15.01;100.00
31681;BME280;18281;51.364;9.566;2022-08-18T05:23:20;99646.97;;;15.05;100.00
31681;BME280;18281;51.364;9.566;2022-08-18T05:25:46;99651.03;;;15.09;100.00
31681;BME280;18281;51.364;9.566;2022-08-18T05:28:12;99651.03;;;15.09;100.00
31681;BME280;18281;51.364;9.566;2022-08-18T05:30:39;99643.47;;;15.16;100.00
31681;BME280;18281;51.364;9.566;2022-08-18T05:33:06;99638.66;;;15.21;100.00
31681;BME280;18281;51.364;9.566;2022-08-18T05:35:50;99639.81;;;15.29;100.00
31681;BME280;18281;51.364;9.566;2022-08-18T05:38:38;99640.91;;;15.26;100.00
31681;BME280;18281;51.364;9.566;2022-08-18T05:41:14;99638.03;;;15.18;100.00
31681;BME280;18281;51.364;9.566;2022-08-18T05:43:44;99634.78;;;15.25;100.00
31681;BME280;18281;51.364;9.566;2022-08-18T05:46:11;99630.53;;;15.34;100.00
31681;BME280;18281;51.364;9.566;2022-08-18T05:48:37;99633.69;;;15.28;100.00
31681;BME280;18281;51.364;9.566;2022-08-18T05:51:13;99627.53;;;15.39;100.00
31681;BME280;18281;51.364;9.566;2022-08-18T05:53:41;99620.41;;;15.39;100.00
31681;BME280;18281;51.364;9.566;2022-08-18T05:56:28;99626.84;;;15.25;100.00
31681;BME280;18281;51.364;9.566;2022-08-18T05:59:32;99629.72;;;15.22;100.00
31681;BME280;18281;51.364;9.566;2022-08-18T06:02:05;99627.00;;;15.45;100.00
31681;BME280;18281;51.364;9.566;2022-08-18T06:04:55;99633.31;;;15.33;100.00
31681;BME280;18281;51.364;9.566;2022-08-18T06:07:35;99646.31;;;15.24;100.00
31681;BME280;18281;51.364;9.566;2022-08-18T06:10:03;99643.13;;;15.09;100.00
31681;BME280;18281;51.364;9.566;2022-08-18T06:15:14;99640.81;;;15.16;100.00
31681;BME280;18281;51.364;9.566;2022-08-18T06:20:28;99637.72;;;15.43;100.00
31681;BME280;18281;51.364;9.566;2022-08-18T06:26:12;99639.53;;;15.43;100.00
31681;BME280;18281;51.364;9.566;2022-08-18T06:35:02;99657.09;;;15.65;100.00
31681;BME280;18281;51.364;9.566;2022-08-18T06:40:24;99662.97;;;15.80;100.00
31681;BME280;18281;51.364;9.566;2022-08-18T06:42:50;99667.34;;;15.91;100.00
31681;BME280;18281;51.364;9.566;2022-08-18T06:45:16;99672.03;;;15.66;100.00
31681;BME280;18281;51.364;9.566;2022-08-18T06:47:52;99675.69;;;15.86;100.00
31681;BME280;18281;51.364;9.566;2022-08-18T06:50:27;99671.81;;;15.90;100.00
31681;BME280;18281;51.364;9.566;2022-08-18T06:52:57;99670.84;;;15.91;100.00
31681;BME280;18281;51.364;9.566;2022-08-18T06:55:36;99666.66;;;15.89;100.00
31681;BME280;18281;51.364;9.566;2022-08-18T06:58:26;99680.06;;;15.76;100.00
31681;BME280;18281;51.364;9.566;2022-08-18T07:03:20;99685.06;;;15.90;100.00
31681;BME280;18281;51.364;9.566;2022-08-18T07:05:59;99681.91;;;15.97;100.00
31681;BME280;18281;51.364;9.566;2022-08-18T07:11:19;99685.06;;;16.12;100.00
31681;BME280;18281;51.364;9.566;2022-08-18T07:13:47;99684.56;;;16.18;100.00
31681;BME280;18281;51.364;9.566;2022-08-18T07:16:33;99663.16;;;16.31;100.00
31681;BME280;18281;51.364;9.566;2022-08-18T07:19:10;99664.44;;;16.36;100.00
31681;BME280;18281;51.364;9.566;2022-08-18T07:21:38;99654.41;;;16.40;100.00
31681;BME280;18281;51.364;9.566;2022-08-18T07:24:09;99653.91;;;16.46;100.00
31681;BME280;18281;51.364;9.566;2022-08-18T07:29:26;99656.28;;;16.49;100.00
31681;BME280;18281;51.364;9.566;2022-08-18T07:31:54;99661.28;;;16.52;100.00
31681;BME280;18281;51.364;9.566;2022-08-18T07:34:24;99666.66;;;16.31;100.00
31681;BME280;18281;51.364;9.566;2022-08-18T07:36:57;99661.78;;;16.57;100.00
31681;BME280;18281;51.364;9.566;2022-08-18T07:39:42;99666.56;;;16.64;100.00
31681;BME280;18281;51.364;9.566;2022-08-18T07:42:20;99667.16;;;16.77;100.00
31681;BME280;18281;51.364;9.566;2022-08-18T07:45:05;99670.47;;;16.69;100.00
31681;BME280;18281;51.364;9.566;2022-08-18T07:47:43;99668.09;;;16.66;100.00
31681;BME280;18281;51.364;9.566;2022-08-18T07:50:12;99674.50;;;16.64;100.00
31681;BME280;18281;51.364;9.566;2022-08-18T07:52:54;99671.34;;;16.49;100.00
31681;BME280;18281;51.364;9.566;2022-08-18T07:55:31;99674.19;;;16.57;100.00
31681;BME280;18281;51.364;9.566;2022-08-18T08:01:31;99685.28;;;16.51;100.00
31681;BME280;18281;51.364;9.566;2022-08-18T08:04:26;99684.84;;;16.67;100.00
31681;BME280;18281;51.364;9.566;2022-08-18T08:07:09;99678.22;;;16.82;100.00
31681;BME280;18281;51.364;9.566;2022-08-18T08:09:53;99692.00;;;16.86;100.00
31681;BME280;18281;51.364;9.566;2022-08-18T08:12:46;99685.53;;;17.00;100.00
31681;BME280;18281;51.364;9.566;2022-08-18T08:15:27;99685.25;;;17.13;100.00
31681;BME280;18281;51.364;9.566;2022-08-18T08:20:42;99679.56;;;17.17;100.00
31681;BME280;18281;51.364;9.566;2022-08-18T08:26:31;99680.88;;;17.42;100.00
31681;BME280;18281;51.364;9.566;2022-08-18T08:32:00;99680.41;;;17.27;100.00
31681;BME280;18281;51.364;9.566;2022-08-18T08:37:40;99688.16;;;17.70;100.00
31681;BME280;18281;51.364;9.566;2022-08-18T08:40:15;99671.66;;;17.96;100.00
31681;BME280;18281;51.364;9.566;2022-08-18T08:42:58;99681.16;;;17.88;100.00
31681;BME280;18281;51.364;9.566;2022-08-18T08:45:31;99689.56;;;17.74;100.00
31681;BME280;18281;51.364;9.566;2022-08-18T08:48:24;99689.81;;;17.61;100.00
31681;BME280;18281;51.364;9.566;2022-08-18T08:53:34;99699.03;;;17.57;100.00
31681;BME280;18281;51.364;9.566;2022-08-18T08:56:08;99704.91;;;18.00;100.00
31681;BME280;18281;51.364;9.566;2022-08-18T08:58:54;99715.69;;;17.69;100.00
31681;BME280;18281;51.364;9.566;2022-08-18T09:01:29;99709.25;;;17.91;100.00
31681;BME280;18281;51.364;9.566;2022-08-18T09:04:00;99702.09;;;18.01;100.00
31681;BME280;18281;51.364;9.566;2022-08-18T09:09:55;99721.41;;;18.03;99.88
31681;BME280;18281;51.364;9.566;2022-08-18T09:27:11;99753.16;;;17.85;99.47
31681;BME280;18281;51.364;9.566;2022-08-18T09:40:20;99756.38;;;17.99;98.48
31681;BME280;18281;51.364;9.566;2022-08-18T09:43:13;99762.66;;;18.17;98.21
31681;BME280;18281;51.364;9.566;2022-08-18T09:50:54;99759.25;;;18.54;95.64
31681;BME280;18281;51.364;9.566;2022-08-18T09:56:15;99756.34;;;18.48;94.97
31681;BME280;18281;51.364;9.566;2022-08-18T09:58:57;99759.59;;;18.12;95.28
31681;BME280;18281;51.364;9.566;2022-08-18T10:06:44;99765.09;;;18.68;93.99
31681;BME280;18281;51.364;9.566;2022-08-18T10:09:35;99763.59;;;18.55;93.99
31681;BME280;18281;51.364;9.566;2022-08-18T10:20:53;99762.78;;;18.45;93.90
31681;BME280;18281;51.364;9.566;2022-08-18T10:34:44;99736.03;;;18.56;93.24
31681;BME280;18281;51.364;9.566;2022-08-18T10:37:36;99731.47;;;18.39;94.03
31681;BME280;18281;51.364;9.566;2022-08-18T10:45:25;99709.16;;;18.59;93.34
31681;BME280;18281;51.364;9.566;2022-08-18T10:50:52;99706.13;;;18.92;94.04
31681;BME280;18281;51.364;9.566;2022-08-18T10:59:31;99692.81;;;19.20;92.25
31681;BME280;18281;51.364;9.566;2022-08-18T11:04:33;99677.25;;;18.97;92.21
31681;BME280;18281;51.364;9.566;2022-08-18T11:09:42;99674.41;;;19.08;91.94
31681;BME280;18281;51.364;9.566;2022-08-18T11:12:11;99680.88;;;18.96;92.09
31681;BME280;18281;51.364;9.566;2022-08-18T11:20:13;99660.47;;;18.87;92.55
31681;BME280;18281;51.364;9.566;2022-08-18T11:22:50;99660.22;;;18.80;92.83
31681;BME280;18281;51.364;9.566;2022-08-18T11:25:21;99651.44;;;19.07;93.64
31681;BME280;18281;51.364;9.566;2022-08-18T11:27:47;99655.88;;;19.17;94.28
31681;BME280;18281;51.364;9.566;2022-08-18T11:30:13;99655.25;;;19.23;93.89
31681;BME280;18281;51.364;9.566;2022-08-18T11:32:40;99649.25;;;19.21;93.71
31681;BME280;18281;51.364;9.566;2022-08-18T11:40:21;99637.69;;;19.12;92.79
31681;BME280;18281;51.364;9.566;2022-08-18T11:43:15;99631.31;;;19.41;92.60
31681;BME280;18281;51.364;9.566;2022-08-18T11:48:32;99631.91;;;19.35;91.01
31681;BME280;18281;51.364;9.566;2022-08-18T11:51:09;99625.22;;;19.31;91.50
31681;BME280;18281;51.364;9.566;2022-08-18T11:58:59;99652.38;;;19.52;89.30
31681;BME280;18281;51.364;9.566;2022-08-18T12:06:58;99656.09;;;19.41;88.82
31681;BME280;18281;51.364;9.566;2022-08-18T12:09:50;99651.25;;;19.37;88.38
31681;BME280;18281;51.364;9.566;2022-08-18T12:12:33;99649.03;;;19.50;88.13
31681;BME280;18281;51.364;9.566;2022-08-18T12:17:29;99644.75;;;19.57;87.88
31681;BME280;18281;51.364;9.566;2022-08-18T12:19:55;99633.00;;;19.42;86.65
31681;BME280;18281;51.364;9.566;2022-08-18T12:22:29;99630.91;;;19.54;87.86
31681;BME280;18281;51.364;9.566;2022-08-18T12:24:56;99625.13;;;19.58;87.86
31681;BME280;18281;51.364;9.566;2022-08-18T12:27:24;99617.47;;;19.55;87.72
31681;BME280;18281;51.364;9.566;2022-08-18T12:29:51;99622.41;;;19.50;87.73
31681;BME280;18281;51.364;9.566;2022-08-18T12:32:18;99628.47;;;19.60;87.95
31681;BME280;18281;51.364;9.566;2022-08-18T12:34:45;99639.13;;;19.60;88.02
31681;BME280;18281;51.364;9.566;2022-08-18T12:37:15;99643.56;;;19.52;86.90
31681;BME280;18281;51.364;9.566;2022-08-18T12:39:41;99622.78;;;19.55;87.08
31681;BME280;18281;51.364;9.566;2022-08-18T12:42:07;99633.97;;;19.77;86.87
31681;BME280;18281;51.364;9.566;2022-08-18T12:44:33;99632.91;;;19.88;87.45
31681;BME280;18281;51.364;9.566;2022-08-18T12:47:00;99632.84;;;19.80;87.36
31681;BME280;18281;51.364;9.566;2022-08-18T12:49:26;99631.09;;;19.97;87.70
31681;BME280;18281;51.364;9.566;2022-08-18T12:51:52;99628.59;;;19.69;86.94
31681;BME280;18281;51.364;9.566;2022-08-18T12:54:20;99617.72;;;19.62;88.50
31681;BME280;18281;51.364;9.566;2022-08-18T12:56:51;99612.19;;;19.82;87.85
31681;BME280;18281;51.364;9.566;2022-08-18T12:59:18;99604.84;;;20.02;87.08
31681;BME280;18281;51.364;9.566;2022-08-18T13:01:44;99610.13;;;19.93;87.19
31681;BME280;18281;51.364;9.566;2022-08-18T13:04:10;99604.41;;;19.88;86.74
31681;BME280;18281;51.364;9.566;2022-08-18T13:06:38;99605.28;;;19.89;86.47
31681;BME280;18281;51.364;9.566;2022-08-18T13:09:05;99602.75;;;20.14;86.07
31681;BME280;18281;51.364;9.566;2022-08-18T13:11:31;99607.16;;;20.05;87.02
31681;BME280;18281;51.364;9.566;2022-08-18T13:13:56;99619.50;;;20.06;86.24
31681;BME280;18281;51.364;9.566;2022-08-18T13:16:23;99620.19;;;19.82;86.64
31681;BME280;18281;51.364;9.566;2022-08-18T13:18:49;99618.81;;;19.96;87.24
31681;BME280;18281;51.364;9.566;2022-08-18T13:21:15;99611.25;;;19.91;86.83
31681;BME280;18281;51.364;9.566;2022-08-18T13:23:42;99606.59;;;19.67;86.21
31681;BME280;18281;51.364;9.566;2022-08-18T13:26:12;99590.03;;;20.07;86.18
31681;BME280;18281;51.364;9.566;2022-08-18T13:28:39;99592.84;;;20.32;85.78
31681;BME280;18281;51.364;9.566;2022-08-18T13:31:06;99594.75;;;20.14;85.71
31681;BME280;18281;51.364;9.566;2022-08-18T13:33:32;99600.84;;;20.06;85.19
31681;BME280;18281;51.364;9.566;2022-08-18T13:35:58;99604.13;;;20.26;84.89
31681;BME280;18281;51.364;9.566;2022-08-18T13:38:24;99599.75;;;20.17;85.07
31681;BME280;18281;51.364;9.566;2022-08-18T13:40:50;99598.31;;;20.22;85.08
31681;BME280;18281;51.364;9.566;2022-08-18T13:43:18;99592.22;;;20.38;85.34
31681;BME280;18281;51.364;9.566;2022-08-18T13:45:45;99590.91;;;20.08;84.86
31681;BME280;18281;51.364;9.566;2022-08-18T13:48:14;99592.00;;;20.32;84.72
31681;BME280;18281;51.364;9.566;2022-08-18T13:50:39;99589.75;;;20.45;84.57
31681;BME280;18281;51.364;9.566;2022-08-18T13:53:08;99581.63;;;20.20;84.28
31681;BME280;18281;51.364;9.566;2022-08-18T13:55:36;99578.25;;;20.18;84.59
31681;BME280;18281;51.364;9.566;2022-08-18T13:58:02;99572.50;;;20.31;85.00
31681;BME280;18281;51.364;9.566;2022-08-18T14:00:33;99573.47;;;20.48;84.45
31681;BME280;18281;51.364;9.566;2022-08-18T14:02:59;99564.75;;;20.38;84.16
31681;BME280;18281;51.364;9.566;2022-08-18T14:05:25;99567.44;;;20.46;84.14
31681;BME280;18281;51.364;9.566;2022-08-18T14:08:00;99573.81;;;20.53;84.50
31681;BME280;18281;51.364;9.566;2022-08-18T14:10:27;99565.16;;;20.68;83.77
31681;BME280;18281;51.364;9.566;2022-08-18T14:12:56;99563.34;;;20.60;83.25
31681;BME280;18281;51.364;9.566;2022-08-18T14:15:36;99561.59;;;20.42;83.35
31681;BME280;18281;51.364;9.566;2022-08-18T14:18:04;99557.16;;;20.25;83.25
31681;BME280;18281;51.364;9.566;2022-08-18T14:20:39;99570.06;;;20.38;82.94
31681;BME280;18281;51.364;9.566;2022-08-18T14:23:23;99559.28;;;20.48;83.36
31681;BME280;18281;51.364;9.566;2022-08-18T14:26:07;99550.31;;;20.57;83.26
31681;BME280;18281;51.364;9.566;2022-08-18T14:28:51;99548.34;;;20.67;83.88
31681;BME280;18281;51.364;9.566;2022-08-18T14:31:16;99548.78;;;20.54;84.53
31681;BME280;18281;51.364;9.566;2022-08-18T14:33:44;99540.78;;;20.46;85.33
31681;BME280;18281;51.364;9.566;2022-08-18T14:36:10;99541.03;;;20.26;85.45
31681;BME280;18281;51.364;9.566;2022-08-18T14:38:37;99542.25;;;20.40;85.39
31681;BME280;18281;51.364;9.566;2022-08-18T14:41:05;99549.16;;;20.25;85.36
31681;BME280;18281;51.364;9.566;2022-08-18T14:43:32;99538.63;;;20.15;85.92
31681;BME280;18281;51.364;9.566;2022-08-18T14:46:00;99540.22;;;20.00;86.22
31681;BME280;18281;51.364;9.566;2022-08-18T14:48:26;99547.31;;;20.17;85.99
31681;BME280;18281;51.364;9.566;2022-08-18T14:50:53;99546.94;;;20.12;86.32
31681;BME280;18281;51.364;9.566;2022-08-18T14:53:23;99544.41;;;20.02;86.58
31681;BME280;18281;51.364;9.566;2022-08-18T14:55:50;99540.34;;;20.24;86.69
31681;BME280;18281;51.364;9.566;2022-08-18T14:58:25;99548.13;;;20.18;86.42
31681;BME280;18281;51.364;9.566;2022-08-18T15:00:53;99552.19;;;20.30;86.28
31681;BME280;18281;51.364;9.566;2022-08-18T15:03:19;99546.16;;;20.20;86.53
31681;BME280;18281;51.364;9.566;2022-08-18T15:05:44;99548.00;;;20.27;85.96
31681;BME280;18281;51.364;9.566;2022-08-18T15:08:10;99551.81;;;20.25;86.66
31681;BME280;18281;51.364;9.566;2022-08-18T15:10:35;99560.06;;;19.79;87.83
31681;BME280;18281;51.364;9.566;2022-08-18T15:13:02;99560.25;;;20.12;87.32
31681;BME280;18281;51.364;9.566;2022-08-18T15:15:28;99560.88;;;20.06;86.58
31681;BME280;18281;51.364;9.566;2022-08-18T15:17:54;99561.28;;;20.19;86.97
31681;BME280;18281;51.364;9.566;2022-08-18T15:20:22;99573.97;;;20.17;86.90
31681;BME280;18281;51.364;9.566;2022-08-18T15:22:48;99568.22;;;20.04;87.26
31681;BME280;18281;51.364;9.566;2022-08-18T15:25:31;99565.53;;;19.96;87.79
31681;BME280;18281;51.364;9.566;2022-08-18T15:28:07;99550.75;;;20.09;87.38
31681;BME280;18281;51.364;9.566;2022-08-18T15:30:34;99554.03;;;19.69;88.69
31681;BME280;18281;51.364;9.566;2022-08-18T15:33:02;99541.84;;;19.92;88.52
31681;BME280;18281;51.364;9.566;2022-08-18T15:35:28;99541.22;;;19.99;88.00
31681;BME280;18281;51.364;9.566;2022-08-18T15:37:54;99545.63;;;20.16;87.79
31681;BME280;18281;51.364;9.566;2022-08-18T15:40:24;99549.16;;;20.25;87.25
31681;BME280;18281;51.364;9.566;2022-08-18T15:42:55;99560.78;;;20.16;87.69
31681;BME280;18281;51.364;9.566;2022-08-18T15:45:24;99550.63;;;20.19;88.22
31681;BME280;18281;51.364;9.566;2022-08-18T15:47:53;99555.22;;;20.35;87.26